Time;durP1;ratioP1;P1;durP2;ratioP2;P2;SDS_P1;SDS_P2;PMS_P1;PMS_P2;Temp;Humidity;BMP_temperature;BMP_pressure;BME280_temperature;BME280_humidity;BME280_pressure;Samples;Min_cycle;Max_cycle;Signal;HPM_P1;HPM_P2
2023/09/17 00:02:14;;;;;;;15.52;12.98;;;;;;;-148.15;100.00;61821.78;4933506;29;20075;-91
2023/09/17 00:04:40;;;;;;;14.03;11.97;;;;;;;-148.15;100.00;61821.78;4933630;29;20046;-90
2023/09/17 00:07:05;;;;;;;12.93;11.60;;;;;;;-148.15;100.00;61821.78;4934098;29;20035;-90
2023/09/17 00:09:30;;;;;;;13.70;11.80;;;;;;;-148.15;100.00;61821.78;4933440;29;20032;-90
2023/09/17 00:11:56;;;;;;;14.33;11.33;;;;;;;-148.15;100.00;61821.78;4932634;29;20035;-90
2023/09/17 00:14:21;;;;;;;14.82;11.18;;;;;;;-148.15;100.00;61821.78;4933419;29;20024;-90
2023/09/17 00:16:47;;;;;;;15.97;11.30;;;;;;;-148.15;100.00;61821.78;4933560;29;20034;-90
2023/09/17 00:19:13;;;;;;;16.63;11.50;;;;;;;-148.15;100.00;61821.78;4917040;29;20594;-90
2023/09/17 00:21:38;;;;;;;16.47;11.10;;;;;;;-148.15;100.00;61821.78;4923026;29;20440;-90
2023/09/17 00:24:04;;;;;;;15.63;10.73;;;;;;;-148.15;100.00;61821.78;4921238;29;20012;-89
2023/09/17 00:26:30;;;;;;;11.23;9.83;;;;;;;-148.15;100.00;61821.78;4935603;29;20032;-90
2023/09/17 00:28:56;;;;;;;11.38;10.00;;;;;;;-148.15;100.00;61821.78;4935866;29;20505;-91
2023/09/17 00:31:21;;;;;;;13.00;9.53;;;;;;;-148.15;100.00;61821.78;4934831;29;20110;-90
2023/09/17 00:33:47;;;;;;;12.85;9.10;;;;;;;-148.15;100.00;61821.78;4916921;29;20071;-90
2023/09/17 00:36:12;;;;;;;11.63;9.77;;;;;;;-148.15;100.00;61821.78;4934063;29;20038;-91
2023/09/17 00:38:37;;;;;;;11.33;9.83;;;;;;;-148.15;100.00;61821.78;4932240;29;20038;-90
2023/09/17 00:41:03;;;;;;;12.43;9.63;;;;;;;-148.15;100.00;61821.78;4936372;29;20044;-90
2023/09/17 00:43:30;;;;;;;12.63;9.93;;;;;;;-148.15;100.00;61821.78;4933814;29;20087;-92
2023/09/17 00:45:55;;;;;;;11.23;10.07;;;;;;;-148.15;100.00;61821.78;4937111;29;20030;-91
2023/09/17 00:48:21;;;;;;;21.45;11.05;;;;;;;-148.15;100.00;61821.78;4920120;29;20019;-96
2023/09/17 00:50:47;;;;;;;22.10;12.47;;;;;;;-148.15;100.00;61821.78;5091580;23;20131;-96
2023/09/17 00:53:16;;;;;;;17.70;12.87;;;;;;;-148.15;100.00;61821.78;4958938;29;20276;-96
2023/09/17 00:55:41;;;;;;;20.10;13.18;;;;;;;-148.15;100.00;61821.78;4950855;29;20036;-96
2023/09/17 00:58:08;;;;;;;17.05;13.98;;;;;;;-148.15;100.00;61821.78;4954810;29;20391;-95
2023/09/17 01:00:38;;;;;;;20.40;13.93;;;;;;;-148.15;100.00;61821.78;4942236;29;20039;-95
2023/09/17 01:03:05;;;;;;;19.27;13.80;;;;;;;-148.15;100.00;61821.78;4940410;29;20032;-96
2023/09/17 01:05:41;;;;;;;19.83;14.88;;;;;;;-148.15;100.00;61821.78;4940674;29;20475;-96
2023/09/17 01:08:07;;;;;;;21.83;14.70;;;;;;;-148.15;100.00;61821.78;4945069;29;20051;-94
2023/09/17 01:10:39;;;;;;;20.27;12.50;;;;;;;-148.15;100.00;61821.78;4928777;29;20023;-96
2023/09/17 01:13:05;;;;;;;18.98;14.10;;;;;;;-148.15;100.00;61821.78;4941140;29;20066;-96
2023/09/17 01:15:34;;;;;;;21.95;15.13;;;;;;;-148.15;100.00;61821.78;4958038;29;20023;-96
2023/09/17 01:18:02;;;;;;;23.52;15.82;;;;;;;-148.15;100.00;61821.78;4939442;29;20035;-96
2023/09/17 01:20:31;;;;;;;22.87;14.83;;;;;;;-148.15;100.00;61821.78;4939017;29;20035;-96
2023/09/17 01:23:08;;;;;;;24.30;15.73;;;;;;;-148.15;100.00;61821.78;4937882;29;20377;-96
2023/09/17 01:25:55;;;;;;;25.77;16.05;;;;;;;-148.15;100.00;61821.78;4938601;29;20031;-95
2023/09/17 01:28:22;;;;;;;20.38;15.57;;;;;;;-148.15;100.00;61821.78;4950539;29;20486;-95
2023/09/17 01:30:47;;;;;;;20.73;16.55;;;;;;;-148.15;100.00;61821.78;4939337;29;20383;-95
2023/09/17 01:33:13;;;;;;;22.55;15.68;;;;;;;-148.15;100.00;61821.78;4956283;29;20031;-94
2023/09/17 01:35:52;;;;;;;28.67;16.17;;;;;;;-148.15;100.00;61821.78;4955046;29;20559;-95
2023/09/17 01:38:19;;;;;;;20.65;15.48;;;;;;;-148.15;100.00;61821.78;4957235;29;20023;-94
2023/09/17 01:40:48;;;;;;;23.33;15.77;;;;;;;-148.15;100.00;61821.78;4977559;28;20027;-96
2023/09/17 01:43:16;;;;;;;21.60;15.85;;;;;;;-148.15;100.00;61821.78;4957288;29;20030;-94
2023/09/17 01:45:42;;;;;;;21.27;15.33;;;;;;;-148.15;100.00;61821.78;4966846;28;20051;-94
2023/09/17 01:48:08;;;;;;;23.00;16.27;;;;;;;-148.15;100.00;61821.78;4954572;28;20716;-94
2023/09/17 01:50:35;;;;;;;23.48;17.10;;;;;;;-148.15;100.00;61821.78;4955984;29;20031;-94
2023/09/17 01:53:00;;;;;;;22.23;16.63;;;;;;;-148.15;100.00;61821.78;4957077;29;20028;-96
2023/09/17 01:55:26;;;;;;;23.93;16.97;;;;;;;-148.15;100.00;61821.78;4938343;29;20046;-95
2023/09/17 01:57:58;;;;;;;22.65;16.70;;;;;;;-148.15;100.00;61821.78;4971458;28;20016;-96
2023/09/17 02:00:24;;;;;;;24.00;17.80;;;;;;;-148.15;100.00;61821.78;5182416;23;20456;-91
2023/09/17 02:02:52;;;;;;;27.00;18.17;;;;;;;-148.15;100.00;61821.78;4955712;29;20031;-96
2023/09/17 02:05:20;;;;;;;25.00;17.83;;;;;;;-148.15;100.00;61821.78;4958831;28;20284;-96
2023/09/17 02:07:46;;;;;;;25.88;18.30;;;;;;;-148.15;100.00;61821.78;4945370;29;20035;-96
2023/09/17 02:10:21;;;;;;;25.80;18.40;;;;;;;-148.15;100.00;61821.78;4962336;29;20031;-96
2023/09/17 02:12:52;;;;;;;23.35;17.95;;;;;;;-148.15;100.00;61821.78;4934900;29;20040;-96
2023/09/17 02:15:19;;;;;;;23.73;17.00;;;;;;;-148.15;100.00;61821.78;4937080;29;20047;-96
2023/09/17 02:18:03;;;;;;;27.65;19.92;;;;;;;-148.15;100.00;61821.78;4940386;29;20094;-96
2023/09/17 02:20:54;;;;;;;28.55;20.40;;;;;;;-148.15;100.00;61821.78;4947170;29;20407;-96
2023/09/17 02:23:45;;;;;;;;;;;;;;;;;;;;;
2023/09/17 02:26:21;;;;;;;29.20;20.02;;;;;;;-148.15;100.00;61821.78;4894296;29;20484;-95
2023/09/17 02:28:49;;;;;;;25.50;17.30;;;;;;;-148.15;100.00;61821.78;4901370;29;20037;-96
2023/09/17 02:31:14;;;;;;;34.13;21.63;;;;;;;-148.15;100.00;61821.78;4955726;29;20879;-95
2023/09/17 02:33:40;;;;;;;30.67;21.47;;;;;;;-148.15;100.00;61821.78;4955343;28;20043;-95
2023/09/17 02:36:06;;;;;;;32.30;21.13;;;;;;;-148.15;100.00;61821.78;4935187;29;20031;-94
2023/09/17 02:38:31;;;;;;;36.28;23.00;;;;;;;-148.15;100.00;61821.78;4926924;29;20040;-95
2023/09/17 02:40:57;;;;;;;33.83;21.97;;;;;;;-148.15;100.00;61821.78;4936442;29;20495;-94
2023/09/17 02:43:22;;;;;;;31.03;20.10;;;;;;;-148.15;100.00;61821.78;4917235;29;20027;-94
2023/09/17 02:45:49;;;;;;;35.53;23.02;;;;;;;-148.15;100.00;61821.78;4955382;29;20067;-94
2023/09/17 02:48:15;;;;;;;30.37;21.80;;;;;;;-148.15;100.00;61821.78;4955114;29;20038;-95
2023/09/17 02:50:44;;;;;;;46.80;22.25;;;;;;;-148.15;100.00;61821.78;4926981;29;20032;-96
2023/09/17 02:53:11;;;;;;;36.00;22.10;;;;;;;-148.15;100.00;61821.78;4949362;29;20117;-96
2023/09/17 02:55:36;;;;;;;41.85;22.00;;;;;;;-148.15;100.00;61821.78;4961450;29;20031;-96
2023/09/17 02:58:04;;;;;;;39.83;23.50;;;;;;;-148.15;100.00;61821.78;4965875;28;20252;-96
2023/09/17 03:00:33;;;;;;;48.38;24.25;;;;;;;-148.15;100.00;61821.78;4952983;29;20055;-96
2023/09/17 03:02:59;;;;;;;43.17;26.77;;;;;;;-148.15;100.00;61821.78;4942885;29;20038;-96
2023/09/17 03:05:25;;;;;;;42.60;25.45;;;;;;;-148.15;100.00;61821.78;4959650;28;20015;-96
2023/09/17 03:07:53;;;;;;;47.23;26.80;;;;;;;-148.15;100.00;61821.78;4945667;28;20410;-96
2023/09/17 03:10:20;;;;;;;43.53;25.92;;;;;;;-148.15;100.00;61821.78;4957466;29;20039;-96
2023/09/17 03:12:46;;;;;;;39.15;24.52;;;;;;;-148.15;100.00;61821.78;4936296;29;20519;-94
2023/09/17 03:15:15;;;;;;;46.55;23.42;;;;;;;-148.15;100.00;61821.78;4950876;29;20038;-95
2023/09/17 03:17:43;;;;;;;47.78;24.38;;;;;;;-148.15;100.00;61821.78;4957198;29;20035;-96
2023/09/17 03:20:16;;;;;;;42.53;25.70;;;;;;;-148.15;100.00;61821.78;4943837;29;20040;-96
2023/09/17 03:22:44;;;;;;;46.03;24.93;;;;;;;-148.15;100.00;61821.78;4942809;29;20032;-96
2023/09/17 03:25:11;;;;;;;42.87;24.23;;;;;;;-148.15;100.00;61821.78;4949953;29;20290;-90
2023/09/17 03:27:38;;;;;;;52.45;26.88;;;;;;;-148.15;100.00;61821.78;4953819;29;20042;-92
2023/09/17 03:30:05;;;;;;;42.78;26.23;;;;;;;-148.15;100.00;61821.78;4950378;29;20030;-93
2023/09/17 03:32:31;;;;;;;39.83;27.08;;;;;;;-148.15;100.00;61821.78;4962268;28;20067;-92
2023/09/17 03:34:56;;;;;;;42.25;26.60;;;;;;;-148.15;100.00;61821.78;4951847;28;20098;-91
2023/09/17 03:37:22;;;;;;;39.45;25.20;;;;;;;-148.15;100.00;61821.78;4953044;29;20122;-92
2023/09/17 03:40:13;;;;;;;40.57;25.63;;;;;;;-148.15;100.00;61821.78;4952556;29;20102;-92
2023/09/17 03:42:39;;;;;;;39.88;25.63;;;;;;;-148.15;100.00;61821.78;4951926;28;20053;-93
2023/09/17 03:45:06;;;;;;;39.20;24.77;;;;;;;-148.15;100.00;61821.78;4952346;29;20030;-92
2023/09/17 03:47:32;;;;;;;41.20;26.13;;;;;;;-148.15;100.00;61821.78;4943253;29;20031;-93
2023/09/17 03:49:58;;;;;;;43.77;27.13;;;;;;;-148.15;100.00;61821.78;4948510;28;20298;-92
2023/09/17 03:52:25;;;;;;;37.42;25.30;;;;;;;-148.15;100.00;61821.78;4956812;28;20035;-93
2023/09/17 03:54:52;;;;;;;48.33;27.23;;;;;;;-148.15;100.00;61821.78;4947032;29;20031;-92
2023/09/17 03:57:17;;;;;;;47.00;27.98;;;;;;;-148.15;100.00;61821.78;4952804;29;20144;-96
2023/09/17 03:59:42;;;;;;;43.40;27.50;;;;;;;-148.15;100.00;61821.78;4954928;29;20066;-95
2023/09/17 04:02:07;;;;;;;43.80;27.23;;;;;;;-148.15;100.00;61821.78;4956667;28;20027;-95
2023/09/17 04:04:33;;;;;;;43.45;26.85;;;;;;;-148.15;100.00;61821.78;4950383;29;20027;-94
2023/09/17 04:06:58;;;;;;;44.77;27.17;;;;;;;-148.15;100.00;61821.78;4953028;28;20019;-94
2023/09/17 04:09:24;;;;;;;44.47;28.90;;;;;;;-148.15;100.00;61821.78;4933571;29;20480;-92
2023/09/17 04:11:49;;;;;;;45.70;29.07;;;;;;;-148.15;100.00;61821.78;4951098;29;20046;-92
2023/09/17 04:14:14;;;;;;;45.70;27.67;;;;;;;-148.15;100.00;61821.78;4934816;29;20032;-92
2023/09/17 04:16:40;;;;;;;46.07;28.67;;;;;;;-148.15;100.00;61821.78;4951199;29;20442;-94
2023/09/17 04:19:05;;;;;;;50.57;30.93;;;;;;;-148.15;100.00;61821.78;4973292;28;20059;-95
2023/09/17 04:21:32;;;;;;;43.87;28.17;;;;;;;-148.15;100.00;61821.78;4939355;29;20039;-96
2023/09/17 04:23:57;;;;;;;39.60;27.30;;;;;;;-148.15;100.00;61821.78;4963622;28;20038;-96
2023/09/17 04:26:24;;;;;;;44.10;29.15;;;;;;;-148.15;100.00;61821.78;4970772;28;20024;-96
2023/09/17 04:28:49;;;;;;;46.27;29.67;;;;;;;-148.15;100.00;61821.78;4969722;29;20055;-96
2023/09/17 04:31:15;;;;;;;46.95;30.27;;;;;;;-148.15;100.00;61821.78;4957333;29;20035;-96
2023/09/17 04:33:40;;;;;;;44.00;28.20;;;;;;;-148.15;100.00;61821.78;4959170;29;20027;-95
2023/09/17 04:36:06;;;;;;;43.83;27.50;;;;;;;-148.15;100.00;61821.78;4956072;29;20031;-96
2023/09/17 04:38:31;;;;;;;44.77;29.40;;;;;;;-148.15;100.00;61821.78;4957351;29;20387;-96
2023/09/17 04:40:56;;;;;;;47.38;30.92;;;;;;;-148.15;100.00;61821.78;4954258;28;20103;-96
2023/09/17 04:43:23;;;;;;;43.60;28.53;;;;;;;-148.15;100.00;61821.78;4955070;28;20336;-94
2023/09/17 04:45:48;;;;;;;50.57;31.60;;;;;;;-148.15;100.00;61821.78;4954119;29;20034;-95
2023/09/17 04:48:16;;;;;;;51.00;30.57;;;;;;;-148.15;100.00;61821.78;4956078;29;20314;-95
2023/09/17 04:50:43;;;;;;;47.53;30.95;;;;;;;-148.15;100.00;61821.78;4956328;29;20038;-96
2023/09/17 04:53:10;;;;;;;53.25;32.08;;;;;;;-148.15;100.00;61821.78;4962522;28;20043;-96
2023/09/17 04:58:34;;;;;;;45.27;29.73;;;;;;;-148.15;100.00;61821.78;4996018;23;20048;-96
2023/09/17 05:00:59;;;;;;;46.27;30.23;;;;;;;-148.15;100.00;61821.78;4934620;29;20371;-96
2023/09/17 05:03:31;;;;;;;50.38;31.70;;;;;;;-148.15;100.00;61821.78;4923617;29;20019;-96
2023/09/17 05:08:33;;;;;;;51.45;30.98;;;;;;;-148.15;100.00;61821.78;4954355;29;20055;-96
2023/09/17 05:16:09;;;;;;;49.50;30.73;;;;;;;-148.15;100.00;61821.78;4969256;23;20067;-96
2023/09/17 05:18:35;;;;;;;52.77;32.23;;;;;;;-148.15;100.00;61821.78;4952479;29;20355;-96
2023/09/17 05:21:00;;;;;;;54.80;32.53;;;;;;;-148.15;100.00;61821.78;4947211;29;20038;-96
2023/09/17 05:23:25;;;;;;;50.07;31.60;;;;;;;-148.15;100.00;61821.78;4946476;29;20043;-96
2023/09/17 05:25:50;;;;;;;51.37;31.60;;;;;;;-148.15;100.00;61821.78;4960109;29;20024;-96
2023/09/17 05:28:16;;;;;;;55.83;34.20;;;;;;;-148.15;100.00;61821.78;4978548;28;20031;-96
2023/09/17 06:06:54;;;;;;;59.80;33.40;;;;;;;-148.15;100.00;61821.78;5232126;23;20063;-94
2023/09/17 06:09:19;;;;;;;55.43;34.73;;;;;;;-148.15;100.00;61821.78;4957334;29;20031;-94
2023/09/17 06:11:45;;;;;;;60.13;35.17;;;;;;;-148.15;100.00;61821.78;4965926;29;20434;-96
2023/09/17 06:14:10;;;;;;;55.80;33.63;;;;;;;-148.15;100.00;61821.78;4965896;29;20042;-93
2023/09/17 06:16:36;;;;;;;56.28;35.85;;;;;;;-148.15;100.00;61821.78;4943087;29;20035;-92
2023/09/17 06:19:01;;;;;;;59.57;36.07;;;;;;;-148.15;100.00;61821.78;4937306;29;20039;-91
2023/09/17 06:21:26;;;;;;;65.03;37.70;;;;;;;-148.15;100.00;61821.78;4938189;29;20027;-89
2023/09/17 06:23:51;;;;;;;64.53;35.90;;;;;;;-148.15;100.00;61821.78;4935527;29;20058;-94
2023/09/17 06:26:18;;;;;;;59.42;34.35;;;;;;;-148.15;100.00;61821.78;4936920;29;20068;-93
2023/09/17 06:28:43;;;;;;;63.27;36.10;;;;;;;-148.15;100.00;61821.78;4936602;29;20114;-93
2023/09/17 06:31:09;;;;;;;69.00;37.22;;;;;;;-148.15;100.00;61821.78;4948350;28;20101;-93
2023/09/17 06:33:35;;;;;;;73.17;40.80;;;;;;;-148.15;100.00;61821.78;4927098;29;20030;-94
2023/09/17 06:36:01;;;;;;;72.00;40.03;;;;;;;-148.15;100.00;61821.78;4936814;29;20050;-93
2023/09/17 06:38:27;;;;;;;72.85;41.30;;;;;;;-148.15;100.00;61821.78;4934674;29;20024;-92
2023/09/17 06:40:52;;;;;;;83.57;42.57;;;;;;;-148.15;100.00;61821.78;4933882;29;20035;-91
2023/09/17 06:43:17;;;;;;;69.67;39.57;;;;;;;-148.15;100.00;61821.78;4934053;29;20027;-90
2023/09/17 06:45:43;;;;;;;77.47;40.17;;;;;;;-148.15;100.00;61821.78;4934456;29;20542;-90
2023/09/17 06:48:08;;;;;;;71.18;38.65;;;;;;;-148.15;100.00;61821.78;4936000;29;20122;-91
2023/09/17 06:50:33;;;;;;;76.90;41.17;;;;;;;-148.15;100.00;61821.78;4933689;29;20028;-89
2023/09/17 06:52:59;;;;;;;78.40;41.83;;;;;;;-148.15;100.00;61821.78;4931869;29;20487;-88
2023/09/17 06:55:25;;;;;;;90.13;44.72;;;;;;;-148.15;100.00;61821.78;4933303;29;20318;-90
2023/09/17 06:57:50;;;;;;;79.53;43.27;;;;;;;-148.15;100.00;61821.78;4912626;29;20115;-89
2023/09/17 07:00:15;;;;;;;83.83;43.53;;;;;;;-148.15;100.00;61821.78;4931734;29;20036;-89
2023/09/17 07:02:41;;;;;;;90.73;44.33;;;;;;;-148.15;100.00;61821.78;4936478;29;20020;-89
2023/09/17 07:05:08;;;;;;;85.25;45.70;;;;;;;-148.15;100.00;61821.78;4933469;29;20031;-90
2023/09/17 07:07:34;;;;;;;85.23;43.93;;;;;;;-148.15;100.00;61821.78;4932137;29;20159;-89
2023/09/17 07:10:00;;;;;;;85.00;44.77;;;;;;;-148.15;100.00;61821.78;4933786;29;20382;-90
2023/09/17 07:12:25;;;;;;;95.97;47.75;;;;;;;-148.15;100.00;61821.78;4934135;29;20042;-89
2023/09/17 07:14:51;;;;;;;92.90;47.13;;;;;;;-148.15;100.00;61821.78;4932893;29;20036;-89
2023/09/17 07:17:16;;;;;;;93.07;46.87;;;;;;;-148.15;100.00;61821.78;4932703;29;20034;-89
2023/09/17 07:19:41;;;;;;;106.30;51.70;;;;;;;-148.15;100.00;61821.78;4931897;29;20344;-89
2023/09/17 07:22:11;;;;;;;94.97;46.97;;;;;;;-148.15;100.00;61821.78;4932381;29;20091;-88
2023/09/17 07:24:37;;;;;;;84.50;44.97;;;;;;;-148.15;100.00;61821.78;4939707;29;20124;-86
2023/09/17 07:27:03;;;;;;;83.57;43.70;;;;;;;-148.15;100.00;61821.78;4931871;29;20501;-86
2023/09/17 07:29:29;;;;;;;92.22;46.95;;;;;;;-148.15;100.00;61821.78;4931580;29;20030;-90
2023/09/17 07:31:54;;;;;;;105.37;49.60;;;;;;;-148.15;100.00;61821.78;4914833;29;20491;-88
2023/09/17 07:34:19;;;;;;;99.10;48.17;;;;;;;-148.15;100.00;61821.78;4929716;29;20035;-89
2023/09/17 07:36:45;;;;;;;86.18;45.67;;;;;;;-148.15;100.00;61821.78;4927664;29;20027;-90
2023/09/17 07:39:10;;;;;;;90.80;46.50;;;;;;;-148.15;100.00;61821.78;4931137;29;20036;-89
2023/09/17 07:41:35;;;;;;;86.63;45.57;;;;;;;-148.15;100.00;61821.78;4927705;29;20046;-89
2023/09/17 07:44:01;;;;;;;84.10;44.63;;;;;;;-148.15;100.00;61821.78;4932292;29;20038;-88
2023/09/17 07:46:26;;;;;;;87.85;45.35;;;;;;;-148.15;100.00;61821.78;4931095;29;20059;-89
2023/09/17 07:48:52;;;;;;;91.43;45.93;;;;;;;-148.15;100.00;61821.78;4917861;29;20094;-88
2023/09/17 07:51:17;;;;;;;77.77;42.90;;;;;;;-148.15;100.00;61821.78;4923864;29;20436;-90
2023/09/17 07:53:42;;;;;;;86.60;44.70;;;;;;;-148.15;100.00;61821.78;4934067;29;20109;-90
2023/09/17 07:56:10;;;;;;;77.10;43.53;;;;;;;-148.15;100.00;61821.78;4950230;29;20027;-96
2023/09/17 07:58:36;;;;;;;91.25;46.63;;;;;;;-148.15;100.00;61821.78;4927577;29;20087;-90
2023/09/17 08:01:05;;;;;;;84.68;44.28;;;;;;;-148.15;100.00;61821.78;4925468;29;20036;-88
2023/09/17 08:03:30;;;;;;;91.20;47.93;;;;;;;-148.15;100.00;61821.78;4926537;29;20032;-89
2023/09/17 08:05:56;;;;;;;83.80;48.20;;;;;;;-148.15;100.00;61821.78;4929589;29;20115;-88
2023/09/17 08:08:22;;;;;;;85.60;47.17;;;;;;;-148.15;100.00;61821.78;4930405;29;20106;-89
2023/09/17 08:10:49;;;;;;;88.63;49.65;;;;;;;-148.15;100.00;61821.78;4927042;29;20122;-87
2023/09/17 08:13:14;;;;;;;84.53;48.73;;;;;;;-148.15;100.00;61821.78;4935241;29;20032;-89
2023/09/17 08:15:40;;;;;;;90.23;50.23;;;;;;;-148.15;100.00;61821.78;4937520;29;20272;-93
2023/09/17 08:18:06;;;;;;;85.97;50.07;;;;;;;-148.15;100.00;61821.78;4927189;29;20043;-93
2023/09/17 08:20:31;;;;;;;90.13;49.55;;;;;;;-148.15;100.00;61821.78;4939568;29;20024;-95
2023/09/17 08:22:57;;;;;;;87.10;49.03;;;;;;;-148.15;100.00;61821.78;4950274;28;20038;-94
2023/09/17 08:25:22;;;;;;;82.40;47.27;;;;;;;-148.15;100.00;61821.78;4939158;29;20068;-92
2023/09/17 08:27:52;;;;;;;83.75;48.20;;;;;;;-148.15;100.00;61821.78;4948210;29;20024;-96
2023/09/17 08:30:19;;;;;;;80.72;46.13;;;;;;;-148.15;100.00;61821.78;4935739;29;20020;-96
2023/09/17 08:32:45;;;;;;;75.60;44.60;;;;;;;-148.15;100.00;61821.78;4949685;29;20032;-91
2023/09/17 08:35:14;;;;;;;81.00;44.00;;;;;;;-148.15;100.00;61821.78;5023399;23;20051;-92
2023/09/17 08:37:40;;;;;;;88.40;50.03;;;;;;;-148.15;100.00;61821.78;4963987;28;20031;-95
2023/09/17 08:40:13;;;;;;;87.18;48.83;;;;;;;-148.15;100.00;61821.78;4969479;29;20038;-95
2023/09/17 08:42:41;;;;;;;95.70;52.08;;;;;;;-148.15;100.00;61821.78;4943388;29;20027;-92
2023/09/17 08:45:11;;;;;;;91.00;52.30;;;;;;;-148.15;100.00;61821.78;4958862;29;20024;-96
2023/09/17 08:47:52;;;;;;;93.23;53.00;;;;;;;-148.15;100.00;61821.78;4952212;29;20306;-96
2023/09/17 08:52:59;;;;;;;87.45;49.45;;;;;;;-148.15;100.00;61821.78;5302064;23;20082;-96
2023/09/17 09:08:09;;;;;;;106.80;54.43;;;;;;;-148.15;100.00;61821.78;4973914;28;20095;-96
2023/09/17 09:20:22;;;;;;;92.13;50.97;;;;;;;-148.15;100.00;61821.78;5382715;23;20056;-95
2023/09/17 09:26:33;;;;;;;70.43;42.70;;;;;;;-148.15;100.00;61821.78;4933909;29;20079;-91
2023/09/17 09:28:58;;;;;;;60.78;39.83;;;;;;;-148.15;100.00;61821.78;4936430;29;20091;-89
2023/09/17 09:32:34;;;;;;;64.23;40.00;;;;;;;-148.15;100.00;61821.78;4934920;29;20052;-89
2023/09/17 09:35:01;;;;;;;64.85;39.42;;;;;;;-148.15;100.00;61821.78;4917314;29;20039;-89
2023/09/17 09:38:03;;;;;;;60.83;39.78;;;;;;;-148.15;100.00;61821.78;4935790;29;20170;-89
2023/09/17 09:40:30;;;;;;;62.03;37.70;;;;;;;-148.15;100.00;61821.78;4946698;23;20086;-95
2023/09/17 09:42:56;;;;;;;63.30;37.97;;;;;;;-148.15;100.00;61821.78;4955456;28;20487;-90
2023/09/17 09:45:36;;;;;;;60.53;36.78;;;;;;;-148.15;100.00;61821.78;4937645;29;20063;-89
2023/09/17 09:48:01;;;;;;;56.83;35.30;;;;;;;-148.15;100.00;61821.78;4916911;29;20039;-92
2023/09/17 09:50:28;;;;;;;62.50;38.13;;;;;;;-148.15;100.00;61821.78;4955629;28;20031;-91
2023/09/17 09:52:55;;;;;;;64.95;38.40;;;;;;;-148.15;100.00;61821.78;4952319;28;20563;-90
2023/09/17 09:55:28;;;;;;;65.05;39.67;;;;;;;-148.15;100.00;61821.78;4956806;28;20038;-91
2023/09/17 10:06:13;;;;;;;63.38;37.55;;;;;;;-148.15;100.00;61821.78;2944775;23;20107;-96
2023/09/17 10:08:40;;;;;;;67.28;37.63;;;;;;;-148.15;100.00;61821.78;5394651;23;20047;-96
2023/09/17 10:11:26;;;;;;;69.53;38.22;;;;;;;-148.15;100.00;61821.78;4948556;29;20047;-96
2023/09/17 10:14:00;;;;;;;68.97;38.47;;;;;;;-148.15;100.00;61821.78;4952079;29;20032;-96
2023/09/17 10:16:26;;;;;;;68.33;35.53;;;;;;;-148.15;100.00;61821.78;4938093;29;20024;-93
2023/09/17 10:18:53;;;;;;;68.97;37.97;;;;;;;-148.15;100.00;61821.78;4919899;29;20627;-94
2023/09/17 10:21:25;;;;;;;65.32;38.47;;;;;;;-148.15;100.00;61821.78;4912202;29;20036;-95
2023/09/17 10:23:54;;;;;;;63.30;34.70;;;;;;;-148.15;100.00;61821.78;4931820;29;20036;-95
2023/09/17 10:26:24;;;;;;;57.60;32.80;;;;;;;-148.15;100.00;61821.78;4922170;29;20307;-95
2023/09/17 10:28:54;;;;;;;54.17;32.47;;;;;;;-148.15;100.00;61821.78;4920026;29;20092;-95
2023/09/17 10:31:35;;;;;;;52.45;32.05;;;;;;;-148.15;100.00;61821.78;4940527;29;20106;-92
2023/09/17 10:34:02;;;;;;;41.85;27.90;;;;;;;16.46;100.00;101161.72;4938905;29;20031;-95
2023/09/17 10:36:29;;;;;;;41.60;28.23;;;;;;;16.46;100.00;101161.72;4918850;29;20043;-94
2023/09/17 10:38:58;;;;;;;41.30;26.07;;;;;;;21.63;100.00;101138.31;4938264;29;20027;-94
2023/09/17 10:41:24;;;;;;;46.40;27.13;;;;;;;21.74;100.00;101153.19;4929562;29;20299;-95
2023/09/17 10:43:51;;;;;;;34.95;24.52;;;;;;;21.88;100.00;101146.72;4934636;29;20027;-93
2023/09/17 10:55:16;;;;;;;38.90;24.98;;;;;;;21.46;100.00;101106.41;4947425;29;20128;-93
2023/09/17 10:58:22;;;;;;;37.67;23.67;;;;;;;21.74;100.00;101138.72;4941123;29;20050;-94
2023/09/17 11:03:24;;;;;;;31.17;23.17;;;;;;;21.85;100.00;101139.19;5060826;23;20084;-91
2023/09/17 11:05:57;;;;;;;34.13;22.00;;;;;;;21.90;100.00;101125.38;5026119;23;20047;-90
2023/09/17 11:08:25;;;;;;;30.55;22.30;;;;;;;22.05;100.00;101143.13;4918210;29;20046;-92
2023/09/17 11:11:15;;;;;;;32.17;22.40;;;;;;;22.03;100.00;101116.13;4936336;29;20079;-88
2023/09/17 11:13:43;;;;;;;27.60;20.73;;;;;;;22.00;100.00;101102.38;4930658;29;20845;-90
2023/09/17 11:16:08;;;;;;;34.03;21.73;;;;;;;22.45;100.00;101142.75;4933545;29;20039;-91
2023/09/17 11:19:10;;;;;;;31.93;21.37;;;;;;;22.43;100.00;101115.00;4933292;29;20063;-90
2023/09/17 11:31:58;;;;;;;25.65;17.65;;;;;;;22.80;100.00;101120.66;4899719;23;20070;-93
2023/09/17 11:34:24;;;;;;;23.40;16.33;;;;;;;22.65;100.00;101111.13;4941677;29;20130;-93
2023/09/17 11:36:50;;;;;;;23.10;16.57;;;;;;;22.91;100.00;101133.88;4953635;29;20475;-95
2023/09/17 11:39:17;;;;;;;20.95;15.55;;;;;;;23.10;100.00;101153.31;4951313;29;20680;-93
2023/09/17 11:41:46;;;;;;;19.35;15.38;;;;;;;22.97;100.00;101157.94;4939628;29;20027;-95
2023/09/17 11:44:15;;;;;;;18.80;14.68;;;;;;;23.04;100.00;101164.81;4920746;29;20123;-93
2023/09/17 11:46:42;;;;;;;17.00;13.70;;;;;;;23.32;100.00;101176.00;4933823;29;20064;-93
2023/09/17 11:49:08;;;;;;;19.63;14.17;;;;;;;23.49;100.00;101172.25;4923053;29;20043;-93
2023/09/17 11:51:37;;;;;;;16.65;13.10;;;;;;;23.23;100.00;101135.06;4922624;29;20028;-92
2023/09/17 11:54:05;;;;;;;17.38;13.30;;;;;;;23.67;100.00;101164.69;4931534;29;20047;-92
2023/09/17 11:56:32;;;;;;;14.80;11.82;;;;;;;23.98;100.00;101151.63;4926599;29;20023;-92
2023/09/17 11:59:00;;;;;;;12.93;11.13;;;;;;;24.24;100.00;101145.81;4926828;29;20079;-93
2023/09/17 12:01:30;;;;;;;13.63;10.57;;;;;;;24.25;100.00;101138.38;4937044;29;20053;-92
2023/09/17 12:03:57;;;;;;;14.43;10.83;;;;;;;24.41;100.00;101143.97;4946367;29;20327;-93
2023/09/17 12:06:24;;;;;;;14.10;10.30;;;;;;;24.42;100.00;101149.06;4920008;29;20020;-94
2023/09/17 12:08:49;;;;;;;13.35;9.77;;;;;;;24.65;100.00;101141.16;4920684;29;20127;-94
2023/09/17 12:11:24;;;;;;;11.87;9.17;;;;;;;24.76;100.00;101165.38;4923319;29;20115;-93
2023/09/17 12:13:53;;;;;;;11.02;8.18;;;;;;;24.77;100.00;101170.47;4936621;29;20118;-93
2023/09/17 12:16:27;;;;;;;10.73;8.40;;;;;;;24.61;100.00;101162.19;4931286;29;20395;-94
2023/09/17 12:18:56;;;;;;;9.55;8.18;;;;;;;24.43;100.00;101138.94;4919648;29;20027;-90
2023/09/17 12:21:27;;;;;;;9.60;8.30;;;;;;;24.64;100.00;101155.19;4939971;28;20031;-96
2023/09/17 12:35:22;;;;;;;13.15;7.88;;;;;;;25.36;100.00;101157.22;5695602;23;20062;-96
2023/09/17 12:37:55;;;;;;;8.37;7.57;;;;;;;24.79;100.00;101096.97;5147153;23;20103;-95
2023/09/17 12:40:40;;;;;;;14.17;6.97;;;;;;;25.25;100.00;101153.41;5128783;23;20332;-94
2023/09/17 12:46:20;;;;;;;10.30;8.05;;;;;;;25.12;100.00;101146.38;4979384;23;20123;-94
2023/09/17 12:48:46;;;;;;;9.38;8.20;;;;;;;25.11;100.00;101115.44;4922687;29;20046;-94
2023/09/17 12:53:50;;;;;;;9.20;7.93;;;;;;;24.87;100.00;101091.69;4906589;29;20132;-94
2023/09/17 12:56:15;;;;;;;8.70;7.25;;;;;;;24.99;100.00;101119.03;4895834;29;20398;-90
2023/09/17 12:58:40;;;;;;;8.37;7.43;;;;;;;25.05;100.00;101142.31;4891386;29;20047;-85
2023/09/17 13:01:10;;;;;;;8.77;7.47;;;;;;;24.69;100.00;101143.19;4910345;29;20455;-87
2023/09/17 13:03:36;;;;;;;7.80;7.10;;;;;;;24.53;100.00;101138.44;4909463;29;20501;-84
2023/09/17 13:06:02;;;;;;;7.93;6.60;;;;;;;24.70;100.00;101133.84;4907713;29;20107;-85